createdAt,value
2018-12-06T00:02:00.573Z,7.80
2018-12-06T00:04:34.179Z,7.90
2018-12-06T00:07:08.757Z,7.80
2018-12-06T00:09:42.333Z,7.80
2018-12-06T00:12:15.855Z,7.80
2018-12-06T00:14:49.481Z,7.90
2018-12-06T00:17:23.043Z,7.90
2018-12-06T00:19:56.641Z,7.90
2018-12-06T00:22:30.304Z,7.80
2018-12-06T00:25:04.003Z,7.90
2018-12-06T00:27:38.321Z,7.90
2018-12-06T00:30:35.476Z,7.80
2018-12-06T00:33:10.197Z,7.80
2018-12-06T00:35:45.235Z,7.80
2018-12-06T00:38:18.954Z,7.70
2018-12-06T00:40:52.603Z,7.70
2018-12-06T00:43:26.218Z,7.70
2018-12-06T00:45:59.735Z,7.70
2018-12-06T00:48:34.136Z,7.80
2018-12-06T00:51:07.868Z,7.80
2018-12-06T00:53:42.229Z,7.90
2018-12-06T00:56:16.675Z,7.90
2018-12-06T00:58:50.201Z,7.90
2018-12-06T01:01:23.724Z,7.90
2018-12-06T01:03:57.219Z,7.90
2018-12-06T01:06:30.789Z,7.90
2018-12-06T01:09:04.402Z,7.80
2018-12-06T01:11:38.021Z,7.80
2018-12-06T01:14:11.708Z,7.80
2018-12-06T01:16:45.419Z,7.80
2018-12-06T01:19:19.824Z,7.80
2018-12-06T01:21:53.520Z,7.80
2018-12-06T01:24:27.094Z,7.80
2018-12-06T01:27:00.759Z,7.70
2018-12-06T01:29:34.289Z,7.70
2018-12-06T01:32:07.893Z,7.70
2018-12-06T01:34:41.409Z,7.60
2018-12-06T01:37:14.922Z,7.50
2018-12-06T01:39:48.678Z,7.50
2018-12-06T01:42:22.313Z,7.50
2018-12-06T01:44:55.919Z,7.50
2018-12-06T01:47:30.726Z,7.60
2018-12-06T01:50:05.173Z,7.60
2018-12-06T01:52:38.890Z,7.60
2018-12-06T01:55:13.297Z,7.50
2018-12-06T01:57:47.937Z,7.50
2018-12-06T02:00:21.447Z,7.50
2018-12-06T02:02:55.761Z,7.50
2018-12-06T02:05:29.347Z,7.50
2018-12-06T02:08:02.897Z,7.60
2018-12-06T02:10:36.641Z,7.60
2018-12-06T02:13:10.221Z,7.70
2018-12-06T02:15:43.860Z,7.70
2018-12-06T02:18:17.483Z,7.80
2018-12-06T02:20:51.775Z,7.80
2018-12-06T02:23:26.219Z,7.90
2018-12-06T02:25:59.784Z,7.90
2018-12-06T02:28:33.484Z,8.00
2018-12-06T02:31:07.002Z,8.00
2018-12-06T02:33:40.540Z,8.00
2018-12-06T02:36:15.031Z,7.90
2018-12-06T02:38:49.423Z,7.80
2018-12-06T02:41:23.051Z,7.80
2018-12-06T02:43:56.757Z,7.80
2018-12-06T02:46:30.393Z,7.80
2018-12-06T02:49:04.839Z,7.80
2018-12-06T02:51:38.376Z,7.80
2018-12-06T02:54:11.943Z,7.80
2018-12-06T02:56:45.504Z,7.80
2018-12-06T02:59:19.151Z,7.70
2018-12-06T03:01:53.468Z,7.70
2018-12-06T03:04:27.892Z,7.60
2018-12-06T03:07:01.523Z,7.60
2018-12-06T03:09:35.017Z,7.60
2018-12-06T03:12:09.428Z,7.50
2018-12-06T03:14:43.059Z,7.50
2018-12-06T03:17:16.773Z,7.50
2018-12-06T03:19:50.418Z,7.60
2018-12-06T03:22:24.041Z,7.60
2018-12-06T03:24:58.427Z,7.80
2018-12-06T03:27:31.955Z,7.80
2018-12-06T03:30:05.472Z,7.80
2018-12-06T03:32:38.975Z,7.90
2018-12-06T03:35:12.696Z,7.90
2018-12-06T03:37:47.112Z,7.80
2018-12-06T03:40:21.461Z,7.80
2018-12-06T03:42:55.908Z,7.70
2018-12-06T03:45:30.224Z,7.70
2018-12-06T03:48:03.932Z,7.70
2018-12-06T03:50:38.323Z,7.70
2018-12-06T03:53:12.109Z,7.70
2018-12-06T03:55:45.737Z,7.80
2018-12-06T03:58:19.449Z,7.70
2018-12-06T04:00:52.952Z,7.60
2018-12-06T04:03:26.476Z,7.60
2018-12-06T04:05:59.982Z,7.70
2018-12-06T04:08:33.523Z,7.80
2018-12-06T04:11:07.226Z,7.80
2018-12-06T04:13:40.872Z,7.80
2018-12-06T04:16:15.258Z,7.80
2018-12-06T04:18:48.795Z,7.80
2018-12-06T04:21:22.540Z,7.80
2018-12-06T04:23:56.078Z,7.80
2018-12-06T04:26:29.696Z,7.80
2018-12-06T04:29:04.060Z,7.80
2018-12-06T04:31:37.750Z,7.80
2018-12-06T04:34:12.045Z,7.80
2018-12-06T04:36:45.555Z,7.80
2018-12-06T04:39:19.181Z,7.90
2018-12-06T04:41:53.619Z,7.90
2018-12-06T04:44:27.239Z,7.90
2018-12-06T04:47:00.863Z,7.90
2018-12-06T04:49:34.575Z,8.00
2018-12-06T04:52:08.160Z,8.00
2018-12-06T04:54:41.841Z,8.00
2018-12-06T04:57:15.555Z,8.00
2018-12-06T04:59:49.201Z,8.10
2018-12-06T05:02:22.699Z,8.10
2018-12-06T05:04:57.097Z,7.90
2018-12-06T05:07:31.487Z,7.90
2018-12-06T05:10:05.161Z,7.90
2018-12-06T05:12:39.622Z,7.90
2018-12-06T05:15:13.285Z,7.90
2018-12-06T05:17:47.043Z,7.90
2018-12-06T05:20:20.584Z,7.90
2018-12-06T05:22:54.945Z,8.00
2018-12-06T05:25:28.504Z,7.90
2018-12-06T05:28:02.190Z,7.90
2018-12-06T05:30:35.807Z,7.90
2018-12-06T05:33:09.577Z,7.90
2018-12-06T05:35:43.207Z,7.90
2018-12-06T05:38:16.775Z,7.90
2018-12-06T05:40:50.453Z,8.00
2018-12-06T05:43:23.966Z,8.00
2018-12-06T05:45:57.475Z,8.00
2018-12-06T05:48:31.025Z,8.00
2018-12-06T05:51:04.527Z,7.90
2018-12-06T05:53:38.835Z,7.90
2018-12-06T05:56:12.574Z,7.90
2018-12-06T05:58:46.209Z,7.90
2018-12-06T06:01:19.759Z,8.00
2018-12-06T06:03:53.501Z,8.00
2018-12-06T06:06:27.139Z,8.00
2018-12-06T06:09:00.732Z,8.00
2018-12-06T06:11:34.399Z,7.90
2018-12-06T06:14:08.103Z,8.00
2018-12-06T06:16:41.811Z,8.00
2018-12-06T06:19:15.369Z,8.00
2018-12-06T06:21:49.010Z,8.00
2018-12-06T06:24:23.449Z,8.00
2018-12-06T06:26:57.215Z,8.00
2018-12-06T06:29:30.786Z,8.10
2018-12-06T06:32:04.478Z,8.20
2018-12-06T06:34:38.026Z,8.30
2018-12-06T06:37:11.543Z,8.60
2018-12-06T06:39:45.045Z,8.70
2018-12-06T06:42:18.559Z,8.70
2018-12-06T06:44:52.119Z,8.60
2018-12-06T06:47:25.655Z,8.60
2018-12-06T06:49:59.274Z,8.60
2018-12-06T06:52:33.599Z,8.50
2018-12-06T06:55:07.246Z,8.50
2018-12-06T06:57:40.993Z,8.50
2018-12-06T07:00:15.428Z,8.60
2018-12-06T07:02:49.105Z,8.60
2018-12-06T07:05:22.763Z,8.60
2018-12-06T07:07:56.488Z,8.60
2018-12-06T07:10:30.196Z,8.60
2018-12-06T07:13:03.707Z,8.70
2018-12-06T07:15:37.411Z,8.60
2018-12-06T07:18:11.015Z,8.60
2018-12-06T07:20:44.561Z,8.70
2018-12-06T07:23:19.063Z,8.70
2018-12-06T07:25:52.762Z,8.70
2018-12-06T07:28:27.067Z,8.80
2018-12-06T07:31:00.649Z,8.70
2018-12-06T07:33:34.177Z,8.80
2018-12-06T07:36:07.779Z,8.80
2018-12-06T07:38:41.303Z,8.80
2018-12-06T07:41:15.007Z,8.80
2018-12-06T07:43:48.518Z,8.90
2018-12-06T07:46:22.038Z,9.00
2018-12-06T07:48:55.727Z,9.10
2018-12-06T07:51:29.448Z,9.10
2018-12-06T07:54:03.015Z,9.10
2018-12-06T07:56:36.577Z,9.20
2018-12-06T07:59:11.009Z,9.20
2018-12-06T08:01:45.402Z,9.10
2018-12-06T08:04:19.882Z,9.00
2018-12-06T08:06:53.492Z,9.00
2018-12-06T08:09:27.024Z,9.00
2018-12-06T08:12:00.740Z,9.00
2018-12-06T08:14:34.276Z,9.00
2018-12-06T08:17:08.753Z,8.90
2018-12-06T08:19:42.376Z,8.90
2018-12-06T08:22:16.901Z,9.00
2018-12-06T08:24:50.622Z,8.90
2018-12-06T08:27:25.163Z,9.10
2018-12-06T08:29:59.618Z,9.20
2018-12-06T08:32:33.178Z,9.20
2018-12-06T08:35:06.690Z,9.30
2018-12-06T08:37:40.345Z,9.40
2018-12-06T08:40:14.077Z,9.40
2018-12-06T08:42:48.379Z,9.50
2018-12-06T08:45:22.776Z,9.50
2018-12-06T08:47:56.395Z,9.50
2018-12-06T08:50:30.108Z,9.60
2018-12-06T08:53:04.417Z,9.60
2018-12-06T08:55:37.967Z,9.50
2018-12-06T08:58:11.675Z,9.60
2018-12-06T09:00:45.298Z,9.60
2018-12-06T09:03:18.823Z,9.60
2018-12-06T09:05:52.553Z,9.60
2018-12-06T09:08:26.963Z,9.80
2018-12-06T09:11:01.244Z,10.00
2018-12-06T09:13:34.929Z,10.00
2018-12-06T09:16:08.566Z,10.10
2018-12-06T09:18:42.092Z,10.10
2018-12-06T09:21:15.829Z,10.30
2018-12-06T09:23:49.602Z,10.40
2018-12-06T09:26:23.170Z,10.50
2018-12-06T09:28:57.500Z,10.60
2018-12-06T09:31:31.974Z,10.70
2018-12-06T09:34:05.521Z,10.70
2018-12-06T09:36:39.340Z,10.80
2018-12-06T09:39:12.884Z,10.80
2018-12-06T09:41:46.478Z,10.90
2018-12-06T09:44:20.210Z,11.00
2018-12-06T09:46:54.092Z,10.90
2018-12-06T09:49:27.724Z,10.90
2018-12-06T09:52:01.434Z,10.80
2018-12-06T09:54:34.975Z,10.80
2018-12-06T09:57:08.539Z,10.80
2018-12-06T09:59:42.246Z,10.90
2018-12-06T10:02:15.823Z,10.90
2018-12-06T10:04:49.412Z,10.90
2018-12-06T10:07:22.989Z,11.00
2018-12-06T10:09:56.539Z,11.10
2018-12-06T10:12:30.056Z,11.20
2018-12-06T10:15:04.375Z,11.30
2018-12-06T10:17:38.909Z,11.40
2018-12-06T10:20:13.205Z,11.60
2018-12-06T10:22:46.985Z,11.50
2018-12-06T10:25:20.739Z,11.70
2018-12-06T10:27:54.524Z,12.10
2018-12-06T10:30:28.808Z,12.30
2018-12-06T10:33:02.476Z,12.30
2018-12-06T10:35:37.075Z,12.70
2018-12-06T10:38:11.373Z,12.80
2018-12-06T10:40:44.978Z,12.80
2018-12-06T10:43:18.525Z,13.00
2018-12-06T10:45:52.299Z,12.80
2018-12-06T10:48:26.615Z,12.40
2018-12-06T10:51:12.686Z,12.30
2018-12-06T10:53:46.377Z,12.30
2018-12-06T10:56:20.208Z,12.20
2018-12-06T10:58:53.875Z,12.20
2018-12-06T11:14:50.707Z,12.30
2018-12-06T11:17:24.475Z,12.30
2018-12-06T11:19:58.241Z,12.30
2018-12-06T11:22:31.875Z,12.30
2018-12-06T11:25:05.726Z,12.30
2018-12-06T11:27:40.276Z,12.40
2018-12-06T11:30:14.026Z,12.40
2018-12-06T11:32:48.616Z,12.50
2018-12-06T11:35:22.406Z,12.50
2018-12-06T11:37:56.142Z,12.60
2018-12-06T11:40:29.947Z,12.90
2018-12-06T11:43:03.730Z,13.00
2018-12-06T11:45:37.345Z,13.10
2018-12-06T11:48:11.037Z,13.10
2018-12-06T11:50:44.627Z,13.10
2018-12-06T11:53:19.329Z,13.00
2018-12-06T11:55:52.155Z,12.90
2018-12-06T11:58:25.963Z,12.90
2018-12-06T12:01:00.355Z,13.00
2018-12-06T12:03:34.007Z,13.00
2018-12-06T12:06:07.753Z,13.00
2018-12-06T12:08:41.499Z,13.00
2018-12-06T12:11:15.149Z,13.10
2018-12-06T12:13:49.427Z,13.10
2018-12-06T12:16:23.235Z,13.10
2018-12-06T12:18:57.029Z,13.20
2018-12-06T12:21:30.629Z,13.10
2018-12-06T12:24:04.235Z,13.10
2018-12-06T12:26:37.811Z,13.00
2018-12-06T12:29:11.699Z,13.00
2018-12-06T12:31:45.306Z,13.00
2018-12-06T12:34:18.933Z,13.00
2018-12-06T12:36:53.292Z,13.00
2018-12-06T12:39:27.100Z,13.00
2018-12-06T12:42:00.869Z,13.00
2018-12-06T12:44:34.481Z,13.00
2018-12-06T12:47:08.405Z,13.00
2018-12-06T12:49:42.157Z,13.10
2018-12-06T12:52:15.872Z,13.00
2018-12-06T12:54:49.644Z,13.00
2018-12-06T12:57:23.353Z,13.10
2018-12-06T12:59:56.907Z,13.10
2018-12-06T13:02:30.783Z,13.00
2018-12-06T13:05:04.672Z,13.10
2018-12-06T13:07:38.335Z,13.00
2018-12-06T13:10:12.751Z,12.90
2018-12-06T13:12:46.544Z,12.90
2018-12-06T13:15:20.142Z,13.00
2018-12-06T13:17:53.745Z,13.20
2018-12-06T13:20:27.428Z,13.20
2018-12-06T13:23:01.257Z,13.30
2018-12-06T13:25:35.103Z,13.40
2018-12-06T13:28:09.654Z,13.40
2018-12-06T13:30:44.415Z,13.40
2018-12-06T13:33:18.102Z,13.40
2018-12-06T13:35:51.840Z,13.50
2018-12-06T13:38:25.695Z,13.40
2018-12-06T13:40:59.348Z,13.40
2018-12-06T13:43:33.137Z,13.40
2018-12-06T13:46:07.786Z,13.10
2018-12-06T13:48:41.396Z,13.10
2018-12-06T13:51:15.207Z,13.00
2018-12-06T13:53:48.808Z,13.00
2018-12-06T13:56:22.528Z,12.90
2018-12-06T13:58:56.284Z,12.80
2018-12-06T14:01:29.970Z,12.90
2018-12-06T14:04:03.801Z,12.80
2018-12-06T14:06:38.215Z,12.80
2018-12-06T14:09:11.959Z,12.80
2018-12-06T14:11:45.731Z,12.80
2018-12-06T14:14:19.614Z,12.80
2018-12-06T14:16:54.091Z,12.70
2018-12-06T14:19:27.820Z,12.70
2018-12-06T14:22:01.479Z,12.70
2018-12-06T14:24:36.045Z,12.60
2018-12-06T14:27:10.398Z,12.60
2018-12-06T14:29:44.095Z,12.70
2018-12-06T14:32:17.835Z,12.70
2018-12-06T14:34:52.487Z,12.70
2018-12-06T14:37:26.464Z,12.70
2018-12-06T14:40:00.860Z,12.70
2018-12-06T14:42:35.416Z,12.60
2018-12-06T14:45:09.103Z,12.60
2018-12-06T14:47:42.740Z,12.70
2018-12-06T14:50:17.323Z,12.70
2018-12-06T14:52:51.051Z,12.70
2018-12-06T14:55:24.840Z,12.70
2018-12-06T14:57:58.467Z,12.70
2018-12-06T15:00:32.266Z,12.60
2018-12-06T15:03:06.136Z,12.60
2018-12-06T15:05:40.691Z,12.60
2018-12-06T15:08:15.355Z,12.60
2018-12-06T15:10:49.157Z,12.50
2018-12-06T15:13:22.890Z,12.50
2018-12-06T15:15:57.499Z,12.30
2018-12-06T15:18:31.087Z,12.30
2018-12-06T15:21:04.661Z,12.20
2018-12-06T15:23:38.258Z,12.20
2018-12-06T15:26:11.961Z,12.20
2018-12-06T15:28:46.560Z,12.10
2018-12-06T15:31:20.184Z,12.10
2018-12-06T15:33:53.791Z,12.00
2018-12-06T15:36:28.161Z,11.90
2018-12-06T15:39:01.899Z,11.90
2018-12-06T15:41:35.721Z,11.90
2018-12-06T15:44:09.354Z,11.90
2018-12-06T15:46:43.195Z,11.90
2018-12-06T15:49:16.987Z,11.80
2018-12-06T15:51:50.757Z,11.70
2018-12-06T15:54:25.333Z,11.60
2018-12-06T15:56:59.863Z,11.60
2018-12-06T15:59:33.618Z,11.60
2018-12-06T16:02:08.098Z,11.60
2018-12-06T16:04:41.844Z,11.60
2018-12-06T16:07:16.334Z,11.60
2018-12-06T16:09:50.227Z,11.60
2018-12-06T16:12:24.055Z,11.60
2018-12-06T16:14:57.820Z,11.60
2018-12-06T16:17:32.216Z,11.70
2018-12-06T16:20:05.846Z,11.70
2018-12-06T16:22:39.619Z,11.80
2018-12-06T16:25:13.213Z,11.80
2018-12-06T16:27:46.842Z,11.90
2018-12-06T16:30:20.516Z,12.00
2018-12-06T16:32:54.285Z,12.00
2018-12-06T16:35:28.078Z,12.00
2018-12-06T16:38:02.565Z,12.10
2018-12-06T16:40:36.209Z,12.10
2018-12-06T16:43:09.977Z,12.10
2018-12-06T16:45:43.753Z,12.10
2018-12-06T16:48:17.442Z,12.10
2018-12-06T16:50:51.932Z,12.00
2018-12-06T16:53:25.657Z,11.90
2018-12-06T16:55:59.464Z,11.90
2018-12-06T16:58:33.329Z,11.80
2018-12-06T17:01:07.207Z,11.80
2018-12-06T17:03:42.118Z,11.80
2018-12-06T17:06:15.798Z,11.80
2018-12-06T17:08:50.462Z,11.80
2018-12-06T17:11:24.122Z,11.80
2018-12-06T17:13:57.841Z,11.80
2018-12-06T17:16:31.472Z,11.80
2018-12-06T17:19:05.245Z,11.90
2018-12-06T17:21:38.934Z,11.90
2018-12-06T17:24:12.740Z,11.90
2018-12-06T17:26:46.600Z,12.00
2018-12-06T17:29:20.320Z,12.00
2018-12-06T17:31:54.850Z,12.00
2018-12-06T17:34:28.678Z,12.10
2018-12-06T17:37:02.376Z,12.10
2018-12-06T17:39:36.130Z,12.10
2018-12-06T17:42:09.705Z,12.10
2018-12-06T17:44:43.459Z,12.10
2018-12-06T17:47:17.316Z,12.10
2018-12-06T17:49:51.788Z,12.10
2018-12-06T17:52:25.589Z,12.10
2018-12-06T17:54:59.427Z,12.10
2018-12-06T17:57:33.160Z,12.10
2018-12-06T18:00:07.158Z,12.10
2018-12-06T18:02:41.158Z,12.10
2018-12-06T18:05:14.975Z,12.00
2018-12-06T18:07:48.664Z,12.00
2018-12-06T18:10:22.425Z,12.00
2018-12-06T18:12:56.914Z,12.00
2018-12-06T18:15:30.774Z,12.00
2018-12-06T18:18:04.594Z,12.00
2018-12-06T18:20:38.434Z,12.00
2018-12-06T18:23:12.185Z,11.90
2018-12-06T18:25:46.014Z,12.00
2018-12-06T18:28:19.666Z,11.90
2018-12-06T18:30:53.452Z,11.90
2018-12-06T18:33:27.326Z,11.90
2018-12-06T18:36:01.135Z,11.90
2018-12-06T18:38:34.847Z,11.90
2018-12-06T18:41:08.625Z,11.90
2018-12-06T18:43:43.134Z,12.00
2018-12-06T18:46:16.709Z,11.90
2018-12-06T18:48:50.726Z,11.90
2018-12-06T18:51:24.837Z,11.90
2018-12-06T18:53:59.242Z,11.80
2018-12-06T18:56:33.105Z,11.80
2018-12-06T18:59:06.898Z,11.80
2018-12-06T19:01:40.755Z,11.80
2018-12-06T19:04:14.545Z,11.80
2018-12-06T19:06:48.328Z,11.80
2018-12-06T19:09:22.204Z,11.80
2018-12-06T19:11:55.971Z,11.80
2018-12-06T19:14:29.688Z,11.80
2018-12-06T19:17:03.831Z,11.80
2018-12-06T19:19:38.687Z,11.70
2018-12-06T19:22:12.929Z,11.70
2018-12-06T19:24:46.630Z,11.70
2018-12-06T19:27:20.336Z,11.70
2018-12-06T19:29:54.105Z,11.70
2018-12-06T19:32:28.938Z,11.70
2018-12-06T19:35:02.925Z,11.70
2018-12-06T19:37:37.489Z,11.70
2018-12-06T19:40:11.553Z,11.80
2018-12-06T19:42:45.653Z,11.80
2018-12-06T19:45:19.318Z,11.80
2018-12-06T19:47:52.988Z,11.80
2018-12-06T19:50:27.592Z,11.80
2018-12-06T19:53:01.539Z,11.70
2018-12-06T19:55:36.322Z,11.80
2018-12-06T19:58:10.275Z,11.80
2018-12-06T20:00:44.643Z,11.80
2018-12-06T20:03:18.542Z,11.80
2018-12-06T20:05:52.265Z,11.80
2018-12-06T20:08:26.294Z,11.70
2018-12-06T20:11:00.030Z,11.80
2018-12-06T20:13:33.791Z,11.80
2018-12-06T20:16:08.257Z,11.70
2018-12-06T20:18:42.030Z,11.70
2018-12-06T20:21:15.980Z,11.70
2018-12-06T20:23:50.107Z,11.70
2018-12-06T20:26:25.061Z,11.80
2018-12-06T20:28:59.105Z,11.80
2018-12-06T20:31:33.702Z,11.70
2018-12-06T20:34:07.466Z,11.70
2018-12-06T20:36:41.226Z,11.70
2018-12-06T20:39:14.861Z,11.70
2018-12-06T20:41:48.621Z,11.70
2018-12-06T20:44:22.445Z,11.80
2018-12-06T20:46:56.246Z,11.80
2018-12-06T20:49:30.038Z,11.80
2018-12-06T20:52:03.887Z,11.80
2018-12-06T20:54:37.624Z,11.80
2018-12-06T20:57:11.362Z,11.80
2018-12-06T20:59:45.204Z,11.80
2018-12-06T21:02:19.638Z,11.80
2018-12-06T21:04:53.286Z,11.80
2018-12-06T21:07:27.062Z,11.80
2018-12-06T21:10:00.958Z,11.80
2018-12-06T21:12:34.715Z,11.90
2018-12-06T21:15:08.390Z,11.80
2018-12-06T21:17:42.229Z,11.80
2018-12-06T21:20:15.985Z,11.80
2018-12-06T21:22:50.526Z,11.80
2018-12-06T21:25:24.164Z,11.80
2018-12-06T21:27:57.951Z,11.80
2018-12-06T21:30:31.607Z,11.80
2018-12-06T21:33:05.429Z,11.80
2018-12-06T21:35:39.253Z,11.80
2018-12-06T21:38:12.973Z,11.80
2018-12-06T21:40:47.584Z,11.80
2018-12-06T21:43:21.241Z,11.80
2018-12-06T21:45:55.147Z,11.80
2018-12-06T21:48:28.723Z,11.80
2018-12-06T21:51:02.683Z,11.80
2018-12-06T21:53:36.435Z,11.80
2018-12-06T21:56:10.111Z,11.80
2018-12-06T21:58:43.758Z,11.90
2018-12-06T22:01:17.582Z,11.90
2018-12-06T22:03:51.212Z,11.90
2018-12-06T22:06:25.810Z,11.90
2018-12-06T22:08:59.612Z,11.90
2018-12-06T22:11:33.289Z,11.90
2018-12-06T22:14:07.144Z,11.90
2018-12-06T22:16:40.965Z,11.90
2018-12-06T22:19:14.671Z,11.90
2018-12-06T22:21:48.388Z,12.00
2018-12-06T22:24:22.928Z,12.00
2018-12-06T22:26:56.718Z,11.90
2018-12-06T22:29:30.508Z,12.00
2018-12-06T22:32:04.462Z,12.00
2018-12-06T22:34:38.919Z,12.00
2018-12-06T22:37:12.584Z,11.90
2018-12-06T22:39:46.956Z,12.00
2018-12-06T22:42:20.607Z,12.00
2018-12-06T22:44:54.455Z,12.00
2018-12-06T22:47:29.042Z,12.00
2018-12-06T22:50:03.625Z,12.00
2018-12-06T22:52:37.232Z,12.00
2018-12-06T22:55:11.096Z,12.00
2018-12-06T22:57:44.856Z,12.00
2018-12-06T23:00:18.458Z,12.10
2018-12-06T23:02:53.920Z,12.10
2018-12-06T23:05:27.580Z,12.00
2018-12-06T23:08:01.633Z,12.10
2018-12-06T23:10:35.999Z,12.10
2018-12-06T23:13:09.716Z,12.10
2018-12-06T23:15:44.268Z,12.20
2018-12-06T23:18:18.054Z,12.10
2018-12-06T23:20:51.832Z,12.20
2018-12-06T23:23:26.630Z,12.10
2018-12-06T23:26:01.013Z,12.20
2018-12-06T23:28:34.845Z,12.20
2018-12-06T23:31:08.685Z,12.20
2018-12-06T23:33:42.563Z,12.20
2018-12-06T23:36:16.345Z,12.20
2018-12-06T23:38:50.882Z,12.20
2018-12-06T23:41:24.607Z,12.20
2018-12-06T23:43:58.321Z,12.20
2018-12-06T23:46:32.223Z,12.20
2018-12-06T23:49:05.844Z,12.20
2018-12-06T23:51:39.425Z,12.20
2018-12-06T23:54:12.981Z,12.10
2018-12-06T23:56:46.693Z,12.10
2018-12-06T23:59:20.440Z,12.10
